createdAt,value
2019-03-29T00:00:32.027Z,101857.00
2019-03-29T00:03:06.074Z,101823.00
2019-03-29T00:05:39.932Z,101842.00
2019-03-29T00:08:13.695Z,101850.00
2019-03-29T00:10:47.325Z,101852.00
2019-03-29T00:13:40.182Z,101720.00
2019-03-29T00:16:13.820Z,101855.00
2019-03-29T00:18:47.468Z,101846.00
2019-03-29T00:21:21.072Z,101849.00
2019-03-29T00:24:06.198Z,101851.00
2019-03-29T00:26:31.597Z,101848.00
2019-03-29T00:29:07.066Z,101854.00
2019-03-29T00:31:40.715Z,101846.00
2019-03-29T00:34:14.335Z,101835.00
2019-03-29T00:36:48.248Z,101833.00
2019-03-29T00:39:21.883Z,101837.00
2019-03-29T00:41:55.489Z,101836.00
2019-03-29T00:44:29.305Z,101840.00
2019-03-29T00:47:03.357Z,101844.00
2019-03-29T00:49:37.673Z,101834.00
2019-03-29T00:52:11.595Z,101841.00
2019-03-29T00:54:45.223Z,101838.00
2019-03-29T00:57:18.947Z,101835.00
2019-03-29T00:59:52.611Z,101838.00
2019-03-29T01:02:26.192Z,101832.00
2019-03-29T01:04:59.821Z,101832.00
2019-03-29T01:07:33.512Z,101831.00
2019-03-29T01:10:07.656Z,101835.00
2019-03-29T01:12:42.519Z,101826.00
2019-03-29T01:15:16.164Z,101830.00
2019-03-29T01:17:49.952Z,101826.00
2019-03-29T01:20:23.629Z,101829.00
2019-03-29T01:22:57.982Z,101831.00
2019-03-29T01:25:31.635Z,101824.00
2019-03-29T01:28:05.272Z,101824.00
2019-03-29T01:30:38.869Z,101818.00
2019-03-29T01:33:12.546Z,101815.00
2019-03-29T01:35:46.196Z,101811.00
2019-03-29T01:38:22.018Z,101819.00
2019-03-29T01:40:55.418Z,101812.00
2019-03-29T01:43:29.190Z,101818.00
2019-03-29T01:46:02.820Z,101805.00
2019-03-29T01:48:36.542Z,101810.00
2019-03-29T01:51:10.174Z,101803.00
2019-03-29T01:53:43.836Z,101804.00
2019-03-29T01:56:17.443Z,101797.00
2019-03-29T01:58:51.230Z,101799.00
2019-03-29T02:01:28.419Z,101794.00
2019-03-29T02:04:05.641Z,101793.00
2019-03-29T02:06:38.681Z,101790.00
2019-03-29T02:09:12.321Z,101797.00
2019-03-29T02:11:46.006Z,101789.00
2019-03-29T02:14:21.515Z,101800.00
2019-03-29T02:16:56.942Z,101791.00
2019-03-29T02:19:31.240Z,101798.00
2019-03-29T02:22:05.487Z,101790.00
2019-03-29T02:24:39.259Z,101790.00
2019-03-29T02:27:12.983Z,101790.00
2019-03-29T02:29:46.680Z,101791.00
2019-03-29T02:32:20.305Z,101795.00
2019-03-29T02:34:53.966Z,101792.00
2019-03-29T02:37:29.464Z,101788.00
2019-03-29T02:40:03.891Z,101782.00
2019-03-29T02:42:37.493Z,101780.00
2019-03-29T02:45:11.291Z,101792.00
2019-03-29T02:47:44.892Z,101781.00
2019-03-29T02:50:18.542Z,101781.00
2019-03-29T02:52:52.396Z,101780.00
2019-03-29T02:55:26.074Z,101773.00
2019-03-29T02:57:59.755Z,101773.00
2019-03-29T03:00:33.584Z,101774.00
2019-03-29T03:03:07.420Z,101783.00
2019-03-29T03:05:41.015Z,101781.00
2019-03-29T03:08:14.627Z,101781.00
2019-03-29T03:10:48.260Z,101772.00
2019-03-29T03:13:21.954Z,101786.00
2019-03-29T03:15:55.589Z,101778.00
2019-03-29T03:18:29.277Z,101784.00
2019-03-29T03:21:04.385Z,101773.00
2019-03-29T03:23:38.145Z,101781.00
2019-03-29T03:26:11.760Z,101781.00
2019-03-29T03:28:45.506Z,101780.00
2019-03-29T03:31:19.334Z,101785.00
2019-03-29T03:33:53.000Z,101785.00
2019-03-29T03:36:26.579Z,101782.00
2019-03-29T03:39:00.209Z,101781.00
2019-03-29T03:41:34.017Z,101780.00
2019-03-29T03:44:07.641Z,101779.00
2019-03-29T03:46:41.271Z,101775.00
2019-03-29T03:49:14.933Z,101771.00
2019-03-29T03:51:48.655Z,101764.00
2019-03-29T03:54:22.597Z,101765.00
2019-03-29T03:56:56.721Z,101764.00
2019-03-29T03:59:31.882Z,101755.00
2019-03-29T04:02:05.511Z,101764.00
2019-03-29T04:04:39.332Z,101769.00
2019-03-29T04:07:13.059Z,101759.00
2019-03-29T04:09:49.784Z,101755.00
2019-03-29T04:12:22.833Z,101760.00
2019-03-29T04:14:56.468Z,101760.00
2019-03-29T04:17:31.391Z,101752.00
2019-03-29T04:20:05.756Z,101760.00
2019-03-29T04:22:39.448Z,101766.00
2019-03-29T04:25:13.250Z,101760.00
2019-03-29T04:27:46.948Z,101757.00
2019-03-29T04:30:20.695Z,101758.00
2019-03-29T04:32:54.319Z,101751.00
2019-03-29T04:35:28.059Z,101760.00
2019-03-29T04:38:01.670Z,101752.00
2019-03-29T04:40:35.555Z,101745.00
2019-03-29T04:43:09.193Z,101756.00
2019-03-29T04:45:42.927Z,101747.00
2019-03-29T04:48:16.556Z,101749.00
2019-03-29T04:50:50.290Z,101753.00
2019-03-29T04:53:23.953Z,101744.00
2019-03-29T04:55:58.652Z,101745.00
2019-03-29T04:58:32.293Z,101747.00
2019-03-29T05:01:06.037Z,101749.00
2019-03-29T05:03:39.670Z,101748.00
2019-03-29T05:06:13.287Z,101750.00
2019-03-29T05:08:46.937Z,101745.00
2019-03-29T05:11:20.558Z,101750.00
2019-03-29T05:13:54.292Z,101746.00
2019-03-29T05:16:27.992Z,101755.00
2019-03-29T05:19:01.629Z,101747.00
2019-03-29T05:21:35.696Z,101757.00
2019-03-29T05:24:09.504Z,101751.00
2019-03-29T05:26:43.168Z,101747.00
2019-03-29T05:29:16.871Z,101754.00
2019-03-29T05:31:53.572Z,101759.00
2019-03-29T05:34:26.072Z,101754.00
2019-03-29T05:36:59.839Z,101758.00
2019-03-29T05:39:33.612Z,101761.00
2019-03-29T05:42:07.216Z,101758.00
2019-03-29T05:44:41.062Z,101763.00
2019-03-29T05:47:14.816Z,101761.00
2019-03-29T05:49:48.431Z,101765.00
2019-03-29T05:52:22.102Z,101759.00
2019-03-29T05:54:55.756Z,101757.00
2019-03-29T05:57:29.401Z,101756.00
2019-03-29T06:00:03.670Z,101756.00
2019-03-29T06:02:37.638Z,101756.00
2019-03-29T06:05:11.289Z,101750.00
2019-03-29T06:07:45.065Z,101754.00
2019-03-29T06:10:18.679Z,101756.00
2019-03-29T06:12:52.311Z,101760.00
2019-03-29T06:15:25.945Z,101751.00
2019-03-29T06:17:59.569Z,101756.00
2019-03-29T06:20:33.228Z,101758.00
2019-03-29T06:23:06.979Z,101758.00
2019-03-29T06:25:40.692Z,101756.00
2019-03-29T06:28:14.463Z,101758.00
2019-03-29T06:30:48.069Z,101770.00
2019-03-29T06:33:21.774Z,101772.00
2019-03-29T06:35:58.445Z,101764.00
2019-03-29T06:38:35.232Z,101764.00
2019-03-29T06:41:08.866Z,101760.00
2019-03-29T06:43:42.543Z,101754.00
2019-03-29T06:46:16.238Z,101754.00
2019-03-29T06:48:50.129Z,101757.00
2019-03-29T06:51:23.754Z,101751.00
2019-03-29T06:53:57.434Z,101751.00
2019-03-29T06:56:31.150Z,101757.00
2019-03-29T06:59:04.896Z,101767.00
2019-03-29T07:01:38.745Z,101763.00
2019-03-29T07:04:12.536Z,101761.00
2019-03-29T07:06:46.288Z,101747.00
2019-03-29T07:09:19.914Z,101758.00
2019-03-29T07:11:53.510Z,101751.00
2019-03-29T07:14:27.160Z,101760.00
2019-03-29T07:17:00.924Z,101749.00
2019-03-29T07:19:34.654Z,101758.00
2019-03-29T07:22:08.321Z,101752.00
2019-03-29T07:24:42.009Z,101762.00
2019-03-29T07:27:15.607Z,101753.00
2019-03-29T07:29:49.359Z,101754.00
2019-03-29T07:32:22.951Z,101763.00
2019-03-29T07:34:56.583Z,101764.00
2019-03-29T07:37:30.200Z,101759.00
2019-03-29T07:40:04.564Z,101764.00
2019-03-29T07:42:38.252Z,101749.00
2019-03-29T07:45:12.049Z,101752.00
2019-03-29T07:47:45.664Z,101745.00
2019-03-29T07:50:19.549Z,101746.00
2019-03-29T07:52:53.579Z,101748.00
2019-03-29T07:55:27.225Z,101747.00
2019-03-29T07:58:00.936Z,101758.00
2019-03-29T08:00:34.580Z,101755.00
2019-03-29T08:03:08.204Z,101755.00
2019-03-29T08:05:42.821Z,101759.00
2019-03-29T08:08:24.139Z,101754.00
2019-03-29T08:10:53.965Z,101755.00
2019-03-29T08:13:27.609Z,101760.00
2019-03-29T08:16:01.642Z,101763.00
2019-03-29T08:18:35.240Z,101756.00
2019-03-29T08:21:08.856Z,101749.00
2019-03-29T08:23:42.674Z,101761.00
2019-03-29T08:26:17.534Z,101765.00
2019-03-29T08:28:52.244Z,101750.00
2019-03-29T08:31:25.880Z,101750.00
2019-03-29T08:33:59.551Z,101756.00
2019-03-29T08:36:33.304Z,101745.00
2019-03-29T08:39:10.049Z,101744.00
2019-03-29T08:41:42.583Z,101750.00
2019-03-29T08:44:16.385Z,101753.00
2019-03-29T08:46:50.153Z,101751.00
2019-03-29T08:49:23.771Z,101752.00
2019-03-29T08:51:57.493Z,101756.00
2019-03-29T08:54:31.103Z,101743.00
2019-03-29T08:57:04.748Z,101748.00
2019-03-29T08:59:38.390Z,101739.00
2019-03-29T09:02:12.167Z,101736.00
2019-03-29T09:04:46.177Z,101737.00
2019-03-29T09:07:19.853Z,101721.00
2019-03-29T09:09:54.600Z,101730.00
2019-03-29T09:12:28.366Z,101722.00
2019-03-29T09:15:04.071Z,101727.00
2019-03-29T09:17:37.547Z,101720.00
2019-03-29T09:20:11.625Z,101722.00
2019-03-29T09:22:45.423Z,101717.00
2019-03-29T09:25:21.016Z,101727.00
2019-03-29T09:27:54.760Z,101727.00
2019-03-29T09:30:28.724Z,101736.00
2019-03-29T09:33:02.353Z,101719.00
2019-03-29T09:35:35.969Z,101709.00
2019-03-29T09:38:09.748Z,101712.00
2019-03-29T09:40:49.664Z,101708.00
2019-03-29T09:43:18.905Z,101702.00
2019-03-29T09:45:52.747Z,101712.00
2019-03-29T09:48:26.500Z,101717.00
2019-03-29T09:51:00.125Z,101709.00
2019-03-29T09:53:33.859Z,101704.00
2019-03-29T09:56:07.542Z,101704.00
2019-03-29T09:58:41.141Z,101705.00
2019-03-29T10:01:14.835Z,101704.00
2019-03-29T10:03:48.455Z,101721.00
2019-03-29T10:06:22.269Z,101714.00
2019-03-29T10:08:55.877Z,101709.00
2019-03-29T10:11:29.510Z,101705.00
2019-03-29T10:14:03.314Z,101705.00
2019-03-29T10:16:37.041Z,101700.00
2019-03-29T10:19:10.872Z,101704.00
2019-03-29T10:21:44.598Z,101712.00
2019-03-29T10:24:18.262Z,101703.00
2019-03-29T10:26:51.936Z,101699.00
2019-03-29T10:29:25.664Z,101686.00
2019-03-29T10:31:59.319Z,101679.00
2019-03-29T10:34:37.326Z,101682.00
2019-03-29T10:37:09.615Z,101668.00
2019-03-29T10:39:43.246Z,101674.00
2019-03-29T10:42:18.790Z,101665.00
2019-03-29T10:44:52.442Z,101673.00
2019-03-29T10:47:42.371Z,101672.00
2019-03-29T10:50:01.830Z,101658.00
2019-03-29T10:52:35.747Z,101675.00
2019-03-29T10:55:09.524Z,101664.00
2019-03-29T10:57:43.416Z,101664.00
2019-03-29T11:00:32.174Z,101655.00
2019-03-29T11:03:06.687Z,101649.00
2019-03-29T11:05:40.499Z,101645.00
2019-03-29T11:08:14.272Z,101653.00
2019-03-29T11:10:48.069Z,101651.00
2019-03-29T11:13:21.754Z,101641.00
2019-03-29T11:15:55.393Z,101640.00
2019-03-29T11:18:29.093Z,101638.00
2019-03-29T11:21:03.537Z,101636.00
2019-03-29T11:23:37.525Z,101644.00
2019-03-29T11:26:11.169Z,101630.00
2019-03-29T11:28:44.922Z,101638.00
2019-03-29T11:31:19.951Z,101630.00
2019-03-29T11:33:54.759Z,101639.00
2019-03-29T11:36:28.568Z,101631.00
2019-03-29T11:39:03.914Z,101630.00
2019-03-29T11:41:38.863Z,101629.00
2019-03-29T11:44:12.641Z,101621.00
2019-03-29T11:46:46.426Z,101606.00
2019-03-29T11:49:20.055Z,101613.00
2019-03-29T11:51:53.926Z,101620.00
2019-03-29T11:54:27.688Z,101601.00
2019-03-29T11:57:01.491Z,101596.00
2019-03-29T11:59:35.125Z,101594.00
2019-03-29T12:02:08.812Z,101598.00
2019-03-29T12:04:42.493Z,101594.00
2019-03-29T12:07:16.554Z,101580.00
2019-03-29T12:09:50.274Z,101586.00
2019-03-29T12:12:27.387Z,101577.00
2019-03-29T12:14:59.599Z,101595.00
2019-03-29T12:17:33.339Z,101592.00
2019-03-29T12:20:07.945Z,101591.00
2019-03-29T12:22:41.628Z,101596.00
2019-03-29T12:25:15.237Z,101585.00
2019-03-29T12:27:48.880Z,101580.00
2019-03-29T12:30:31.277Z,101570.00
2019-03-29T12:32:58.287Z,101576.00
2019-03-29T12:35:31.911Z,101568.00
2019-03-29T12:38:05.652Z,101572.00
2019-03-29T12:40:39.437Z,101571.00
2019-03-29T12:43:13.216Z,101572.00
2019-03-29T12:45:47.040Z,101560.00
2019-03-29T12:48:20.680Z,101555.00
2019-03-29T12:50:54.392Z,101556.00
2019-03-29T12:53:28.144Z,101547.00
2019-03-29T12:56:01.894Z,101541.00
2019-03-29T12:58:35.744Z,101541.00
2019-03-29T13:01:09.518Z,101539.00
2019-03-29T13:03:43.280Z,101528.00
2019-03-29T13:06:16.941Z,101528.00
2019-03-29T13:08:50.777Z,101525.00
2019-03-29T13:11:24.405Z,101521.00
2019-03-29T13:14:09.496Z,101528.00
2019-03-29T13:16:33.842Z,101516.00
2019-03-29T13:19:07.509Z,101506.00
2019-03-29T13:21:41.233Z,101501.00
2019-03-29T13:24:16.338Z,101490.00
2019-03-29T13:26:50.222Z,101486.00
2019-03-29T13:29:26.176Z,101489.00
2019-03-29T13:31:59.835Z,101492.00
2019-03-29T13:34:33.481Z,101470.00
2019-03-29T13:37:07.115Z,101472.00
2019-03-29T13:39:40.868Z,101475.00
2019-03-29T13:42:14.619Z,101471.00
2019-03-29T13:44:48.415Z,101469.00
2019-03-29T13:47:22.200Z,101474.00
2019-03-29T13:49:57.044Z,101455.00
2019-03-29T13:52:31.941Z,101460.00
2019-03-29T13:55:06.745Z,101458.00
2019-03-29T13:57:40.403Z,101445.00
2019-03-29T14:00:14.589Z,101442.00
2019-03-29T14:02:48.219Z,101444.00
2019-03-29T14:05:21.831Z,101441.00
2019-03-29T14:07:55.490Z,101436.00
2019-03-29T14:10:29.141Z,101422.00
2019-03-29T14:13:04.627Z,101434.00
2019-03-29T14:15:38.291Z,101427.00
2019-03-29T14:18:11.957Z,101416.00
2019-03-29T14:20:45.652Z,101419.00
2019-03-29T14:23:19.404Z,101404.00
2019-03-29T14:25:53.136Z,101407.00
2019-03-29T14:28:26.807Z,101399.00
2019-03-29T14:31:00.577Z,101398.00
2019-03-29T14:33:35.541Z,101408.00
2019-03-29T14:36:10.393Z,101394.00
2019-03-29T14:38:44.052Z,101386.00
2019-03-29T14:41:17.952Z,101395.00
2019-03-29T14:43:51.729Z,101383.00
2019-03-29T14:46:25.381Z,101386.00
2019-03-29T14:48:59.127Z,101380.00
2019-03-29T14:51:33.048Z,101384.00
2019-03-29T14:54:06.703Z,101368.00
2019-03-29T14:56:40.488Z,101366.00
2019-03-29T14:59:14.099Z,101363.00
2019-03-29T15:01:47.927Z,101362.00
2019-03-29T15:04:21.789Z,101363.00
2019-03-29T15:06:56.550Z,101343.00
2019-03-29T15:09:30.290Z,101349.00
2019-03-29T15:12:06.705Z,101342.00
2019-03-29T15:14:39.590Z,101345.00
2019-03-29T15:17:13.245Z,101333.00
2019-03-29T15:19:46.913Z,101330.00
2019-03-29T15:22:21.898Z,101327.00
2019-03-29T15:24:55.529Z,101324.00
2019-03-29T15:27:29.527Z,101330.00
2019-03-29T15:30:04.027Z,101328.00
2019-03-29T15:32:37.720Z,101329.00
2019-03-29T15:35:11.628Z,101319.00
2019-03-29T15:37:46.546Z,101318.00
2019-03-29T15:40:20.224Z,101317.00
2019-03-29T15:42:55.238Z,101327.00
2019-03-29T15:45:28.920Z,101321.00
2019-03-29T15:48:02.581Z,101319.00
2019-03-29T15:50:36.476Z,101319.00
2019-03-29T15:53:10.246Z,101322.00
2019-03-29T15:55:44.096Z,101311.00
2019-03-29T15:58:17.878Z,101311.00
2019-03-29T16:00:51.768Z,101305.00
2019-03-29T16:03:25.568Z,101306.00
2019-03-29T16:05:59.283Z,101298.00
2019-03-29T16:08:32.980Z,101302.00
2019-03-29T16:11:17.168Z,101277.00
2019-03-29T16:13:45.115Z,101305.00
2019-03-29T16:16:18.836Z,101296.00
2019-03-29T16:18:52.612Z,101299.00
2019-03-29T16:21:26.519Z,101298.00
2019-03-29T16:24:00.200Z,101292.00
2019-03-29T16:26:33.866Z,101298.00
2019-03-29T16:29:07.520Z,101290.00
2019-03-29T16:31:43.716Z,101290.00
2019-03-29T16:34:18.363Z,101287.00
2019-03-29T16:36:52.015Z,101290.00
2019-03-29T16:39:25.849Z,101289.00
2019-03-29T16:41:59.606Z,101286.00
2019-03-29T16:44:33.277Z,101277.00
2019-03-29T16:47:07.005Z,101280.00
2019-03-29T16:49:40.694Z,101281.00
2019-03-29T16:52:14.332Z,101276.00
2019-03-29T16:54:48.013Z,101274.00
2019-03-29T16:57:21.689Z,101279.00
2019-03-29T16:59:55.351Z,101276.00
2019-03-29T17:02:28.967Z,101277.00
2019-03-29T17:05:02.999Z,101275.00
2019-03-29T17:07:37.022Z,101271.00
2019-03-29T17:10:12.013Z,101258.00
2019-03-29T17:12:45.670Z,101257.00
2019-03-29T17:15:19.350Z,101259.00
2019-03-29T17:17:52.995Z,101260.00
2019-03-29T17:20:26.681Z,101267.00
2019-03-29T17:23:00.443Z,101267.00
2019-03-29T17:25:34.226Z,101267.00
2019-03-29T17:28:07.943Z,101266.00
2019-03-29T17:30:56.566Z,101263.00
2019-03-29T17:33:30.340Z,101267.00
2019-03-29T17:36:04.129Z,101267.00
2019-03-29T17:38:38.198Z,101266.00
2019-03-29T17:41:12.047Z,101261.00
2019-03-29T17:43:45.766Z,101262.00
2019-03-29T17:46:19.448Z,101262.00
2019-03-29T17:48:53.532Z,101263.00
2019-03-29T17:51:27.201Z,101264.00
2019-03-29T17:54:01.013Z,101262.00
2019-03-29T17:56:34.867Z,101266.00
2019-03-29T17:59:08.637Z,101263.00
2019-03-29T18:01:42.330Z,101265.00
2019-03-29T18:04:17.244Z,101260.00
2019-03-29T18:06:50.857Z,101259.00
2019-03-29T18:09:24.631Z,101261.00
2019-03-29T18:11:58.314Z,101259.00
2019-03-29T18:14:32.011Z,101258.00
2019-03-29T18:17:05.794Z,101262.00
2019-03-29T18:19:40.590Z,101260.00
2019-03-29T18:22:14.384Z,101260.00
2019-03-29T18:24:48.019Z,101261.00
2019-03-29T18:27:21.750Z,101260.00
2019-03-29T18:29:55.505Z,101250.00
2019-03-29T18:32:30.471Z,101246.00
2019-03-29T18:35:05.363Z,101238.00
2019-03-29T18:37:41.500Z,101240.00
2019-03-29T18:40:25.159Z,101240.00
2019-03-29T18:42:58.968Z,101242.00
2019-03-29T18:45:33.191Z,101239.00
2019-03-29T18:48:11.493Z,101245.00
2019-03-29T18:50:45.252Z,101236.00
2019-03-29T18:53:19.016Z,101228.00
2019-03-29T18:55:52.938Z,101227.00
2019-03-29T18:58:27.714Z,101232.00
2019-03-29T19:01:01.721Z,101237.00
2019-03-29T19:03:35.511Z,101234.00
2019-03-29T19:06:09.229Z,101230.00
2019-03-29T19:08:42.939Z,101227.00
2019-03-29T19:11:16.905Z,101229.00
2019-03-29T19:13:50.567Z,101226.00
2019-03-29T19:16:24.484Z,101217.00
2019-03-29T19:19:09.359Z,101219.00
2019-03-29T19:21:33.905Z,101220.00
2019-03-29T19:24:07.613Z,101217.00
2019-03-29T19:26:41.277Z,101210.00
2019-03-29T19:29:15.164Z,101211.00
2019-03-29T19:31:48.835Z,101207.00
2019-03-29T19:34:22.561Z,101211.00
2019-03-29T19:37:01.569Z,101217.00
2019-03-29T19:39:38.320Z,101219.00
2019-03-29T19:42:12.067Z,101207.00
2019-03-29T19:44:49.305Z,101213.00
2019-03-29T19:47:36.524Z,101195.00
2019-03-29T19:50:15.269Z,101200.00
2019-03-29T19:52:48.970Z,101197.00
2019-03-29T19:55:22.838Z,101194.00
2019-03-29T19:57:56.635Z,101188.00
2019-03-29T20:00:38.923Z,101189.00
2019-03-29T20:03:13.671Z,101184.00
2019-03-29T20:05:47.499Z,101192.00
2019-03-29T20:08:21.278Z,101185.00
2019-03-29T20:10:54.996Z,101183.00
2019-03-29T20:13:28.731Z,101195.00
2019-03-29T20:16:02.619Z,101195.00
2019-03-29T20:18:36.314Z,101197.00
2019-03-29T20:21:10.236Z,101193.00
2019-03-29T20:23:43.936Z,101193.00
2019-03-29T20:26:17.821Z,101189.00
2019-03-29T20:28:51.614Z,101190.00
2019-03-29T20:31:25.584Z,101191.00
2019-03-29T20:33:59.274Z,101186.00
2019-03-29T20:36:32.992Z,101180.00
2019-03-29T20:39:07.347Z,101181.00
2019-03-29T20:41:41.377Z,101185.00
2019-03-29T20:44:15.308Z,101173.00
2019-03-29T20:46:49.055Z,101176.00
2019-03-29T20:49:22.740Z,101176.00
2019-03-29T20:51:56.609Z,101180.00
2019-03-29T20:54:30.501Z,101182.00
2019-03-29T20:57:04.234Z,101170.00
2019-03-29T20:59:38.035Z,101181.00
2019-03-29T21:02:11.774Z,101185.00
2019-03-29T21:04:45.561Z,101166.00
2019-03-29T21:07:19.372Z,101172.00
2019-03-29T21:09:53.067Z,101170.00
2019-03-29T21:12:26.877Z,101164.00
2019-03-29T21:15:00.533Z,101164.00
2019-03-29T21:17:34.443Z,101159.00
2019-03-29T21:20:08.909Z,101158.00
2019-03-29T21:22:42.596Z,101153.00
2019-03-29T21:25:16.233Z,101146.00
2019-03-29T21:27:49.956Z,101160.00
2019-03-29T21:30:23.776Z,101152.00
2019-03-29T21:32:57.468Z,101150.00
2019-03-29T21:35:31.191Z,101153.00
2019-03-29T21:38:04.892Z,101147.00
2019-03-29T21:40:38.546Z,101148.00
2019-03-29T21:43:12.328Z,101152.00
2019-03-29T21:45:47.366Z,101140.00
2019-03-29T21:48:28.550Z,101140.00
2019-03-29T21:50:57.006Z,101137.00
2019-03-29T21:53:30.725Z,101139.00
2019-03-29T21:56:04.560Z,101143.00
2019-03-29T21:58:38.405Z,101139.00
2019-03-29T22:01:12.502Z,101136.00
2019-03-29T22:03:46.179Z,101128.00
2019-03-29T22:06:19.966Z,101126.00
2019-03-29T22:08:53.868Z,101123.00
2019-03-29T22:11:27.811Z,101121.00
2019-03-29T22:14:01.589Z,101128.00
2019-03-29T22:16:36.357Z,101125.00
2019-03-29T22:19:10.012Z,101122.00
2019-03-29T22:21:44.817Z,101120.00
2019-03-29T22:24:18.577Z,101120.00
2019-03-29T22:26:52.238Z,101119.00
2019-03-29T22:29:25.998Z,101114.00
2019-03-29T22:31:59.774Z,101114.00
2019-03-29T22:34:33.623Z,101108.00
2019-03-29T22:37:08.433Z,101095.00
2019-03-29T22:39:42.158Z,101106.00
2019-03-29T22:42:15.934Z,101107.00
2019-03-29T22:44:49.796Z,101096.00
2019-03-29T22:47:23.726Z,101100.00
2019-03-29T22:49:57.381Z,101106.00
2019-03-29T22:52:31.268Z,101093.00
2019-03-29T22:55:06.122Z,101090.00
2019-03-29T22:57:39.826Z,101096.00
2019-03-29T23:00:25.108Z,101084.00
2019-03-29T23:03:00.876Z,101080.00
2019-03-29T23:05:34.780Z,101082.00
2019-03-29T23:08:08.560Z,101077.00
2019-03-29T23:10:42.327Z,101084.00
2019-03-29T23:13:15.986Z,101085.00
2019-03-29T23:15:49.612Z,101075.00
2019-03-29T23:18:23.274Z,101084.00
2019-03-29T23:20:57.111Z,101069.00
2019-03-29T23:23:30.876Z,101076.00
2019-03-29T23:26:04.610Z,101069.00
2019-03-29T23:28:38.269Z,101076.00
2019-03-29T23:31:12.096Z,101082.00
2019-03-29T23:33:46.708Z,101075.00
2019-03-29T23:36:20.449Z,101084.00
2019-03-29T23:38:54.101Z,101082.00
2019-03-29T23:41:27.772Z,101076.00
2019-03-29T23:44:01.440Z,101071.00
2019-03-29T23:46:35.197Z,101072.00
2019-03-29T23:49:20.379Z,101078.00
2019-03-29T23:51:44.617Z,101072.00
2019-03-29T23:54:18.441Z,101076.00
2019-03-29T23:56:52.331Z,101075.00
2019-03-29T23:59:26.203Z,101061.00
